sensor_id;sensor_type;location;lat;lon;timestamp;pressure;altitude;pressure_sealevel;temperature;humidity
80397;BME280;69721;55.894;-3.052;2023-09-19T00:01:58;99074.17;;;10.62;54.73
80397;BME280;69721;55.894;-3.052;2023-09-19T00:04:23;99075.21;;;10.62;54.82
80397;BME280;69721;55.894;-3.052;2023-09-19T00:06:49;99070.52;;;9.10;57.38
80397;BME280;69721;55.894;-3.052;2023-09-19T00:09:14;99078.92;;;10.08;56.87
80397;BME280;69721;55.894;-3.052;2023-09-19T00:11:40;99081.17;;;9.44;58.73
80397;BME280;69721;55.894;-3.052;2023-09-19T00:14:06;99073.43;;;9.01;59.34
80397;BME280;69721;55.894;-3.052;2023-09-19T00:16:31;99081.14;;;9.94;57.10
80397;BME280;69721;55.894;-3.052;2023-09-19T00:18:56;99081.60;;;8.81;59.21
80397;BME280;69721;55.894;-3.052;2023-09-19T00:21:22;99080.32;;;8.72;60.12
80397;BME280;69721;55.894;-3.052;2023-09-19T00:23:47;99069.70;;;8.86;59.65
80397;BME280;69721;55.894;-3.052;2023-09-19T00:26:13;99066.63;;;9.74;57.93
80397;BME280;69721;55.894;-3.052;2023-09-19T00:28:38;99059.49;;;9.58;58.68
80397;BME280;69721;55.894;-3.052;2023-09-19T00:31:04;99069.64;;;9.77;56.99
80397;BME280;69721;55.894;-3.052;2023-09-19T00:33:29;99060.29;;;8.83;61.40
80397;BME280;69721;55.894;-3.052;2023-09-19T00:35:56;99058.16;;;8.97;60.56
80397;BME280;69721;55.894;-3.052;2023-09-19T00:38:21;99057.90;;;9.12;59.34
80397;BME280;69721;55.894;-3.052;2023-09-19T00:40:46;99059.74;;;9.45;59.32
80397;BME280;69721;55.894;-3.052;2023-09-19T00:43:11;99066.96;;;8.71;61.75
80397;BME280;69721;55.894;-3.052;2023-09-19T00:45:38;99063.32;;;9.33;60.87
80397;BME280;69721;55.894;-3.052;2023-09-19T00:48:04;99058.47;;;9.67;59.22
80397;BME280;69721;55.894;-3.052;2023-09-19T00:50:28;99053.87;;;9.33;59.74
80397;BME280;69721;55.894;-3.052;2023-09-19T00:52:55;99052.45;;;10.13;58.81
80397;BME280;69721;55.894;-3.052;2023-09-19T00:55:19;99050.07;;;10.70;57.45
80397;BME280;69721;55.894;-3.052;2023-09-19T00:57:45;99052.80;;;10.43;56.38
80397;BME280;69721;55.894;-3.052;2023-09-19T01:00:11;99040.91;;;10.91;54.84
80397;BME280;69721;55.894;-3.052;2023-09-19T01:02:36;99039.44;;;11.07;54.99
80397;BME280;69721;55.894;-3.052;2023-09-19T01:05:01;99037.64;;;10.67;55.06
80397;BME280;69721;55.894;-3.052;2023-09-19T01:07:27;99041.50;;;10.91;55.10
80397;BME280;69721;55.894;-3.052;2023-09-19T01:09:52;99047.96;;;9.01;58.45
80397;BME280;69721;55.894;-3.052;2023-09-19T01:12:22;99043.00;;;11.25;54.18
80397;BME280;69721;55.894;-3.052;2023-09-19T01:14:50;99042.23;;;10.85;54.19
80397;BME280;69721;55.894;-3.052;2023-09-19T01:17:14;99043.48;;;11.56;52.63
80397;BME280;69721;55.894;-3.052;2023-09-19T01:22:07;99046.91;;;10.88;53.99
80397;BME280;69721;55.894;-3.052;2023-09-19T01:24:39;99050.44;;;10.40;56.47
80397;BME280;69721;55.894;-3.052;2023-09-19T01:27:06;99045.81;;;11.28;53.44
80397;BME280;69721;55.894;-3.052;2023-09-19T01:29:26;99044.46;;;11.68;52.58
80397;BME280;69721;55.894;-3.052;2023-09-19T01:31:43;99050.40;;;9.75;57.06
80397;BME280;69721;55.894;-3.052;2023-09-19T01:34:06;99044.31;;;10.60;54.86
80397;BME280;69721;55.894;-3.052;2023-09-19T01:36:33;99041.07;;;11.60;53.28
80397;BME280;69721;55.894;-3.052;2023-09-19T01:38:59;99043.18;;;11.51;52.47
80397;BME280;69721;55.894;-3.052;2023-09-19T01:41:30;99040.30;;;12.07;52.78
80397;BME280;69721;55.894;-3.052;2023-09-19T01:43:49;99035.61;;;10.60;54.68
80397;BME280;69721;55.894;-3.052;2023-09-19T01:46:18;99030.10;;;11.77;52.19
80397;BME280;69721;55.894;-3.052;2023-09-19T01:48:43;99036.03;;;10.77;55.59
80397;BME280;69721;55.894;-3.052;2023-09-19T01:51:07;99027.94;;;11.80;53.48
80397;BME280;69721;55.894;-3.052;2023-09-19T01:53:36;99020.83;;;10.32;55.88
80397;BME280;69721;55.894;-3.052;2023-09-19T01:55:56;99027.06;;;10.06;56.31
80397;BME280;69721;55.894;-3.052;2023-09-19T01:58:27;99025.46;;;9.19;58.98
80397;BME280;69721;55.894;-3.052;2023-09-19T02:00:48;99023.30;;;9.83;58.77
80397;BME280;69721;55.894;-3.052;2023-09-19T02:03:12;99026.12;;;10.11;58.70
80397;BME280;69721;55.894;-3.052;2023-09-19T02:05:37;99021.30;;;9.50;59.63
80397;BME280;69721;55.894;-3.052;2023-09-19T02:08:03;99016.28;;;9.30;60.47
80397;BME280;69721;55.894;-3.052;2023-09-19T02:10:28;99015.71;;;9.16;60.70
80397;BME280;69721;55.894;-3.052;2023-09-19T02:12:54;99019.50;;;9.24;60.66
80397;BME280;69721;55.894;-3.052;2023-09-19T02:15:19;99013.35;;;9.25;60.39
80397;BME280;69721;55.894;-3.052;2023-09-19T02:17:45;99009.93;;;9.26;61.17
80397;BME280;69721;55.894;-3.052;2023-09-19T02:20:11;99004.15;;;9.20;61.38
80397;BME280;69721;55.894;-3.052;2023-09-19T02:22:36;99007.53;;;9.40;62.56
80397;BME280;69721;55.894;-3.052;2023-09-19T02:25:01;99000.84;;;9.11;61.99
80397;BME280;69721;55.894;-3.052;2023-09-19T02:27:27;99004.04;;;9.18;62.45
80397;BME280;69721;55.894;-3.052;2023-09-19T02:29:52;99011.01;;;9.08;64.25
80397;BME280;69721;55.894;-3.052;2023-09-19T02:32:18;99003.35;;;13.18;57.44
80397;BME280;69721;55.894;-3.052;2023-09-19T02:34:43;99000.40;;;10.75;73.43
80397;BME280;69721;55.894;-3.052;2023-09-19T02:37:09;98993.02;;;11.53;58.81
80397;BME280;69721;55.894;-3.052;2023-09-19T02:39:35;98988.34;;;11.34;57.26
80397;BME280;69721;55.894;-3.052;2023-09-19T02:42:00;98983.28;;;11.02;57.17
80397;BME280;69721;55.894;-3.052;2023-09-19T02:44:26;98977.40;;;11.67;55.96
80397;BME280;69721;55.894;-3.052;2023-09-19T02:46:51;98983.44;;;9.66;59.60
80397;BME280;69721;55.894;-3.052;2023-09-19T02:49:17;98979.27;;;11.64;55.65
80397;BME280;69721;55.894;-3.052;2023-09-19T02:51:42;98977.22;;;10.95;57.76
80397;BME280;69721;55.894;-3.052;2023-09-19T02:54:08;98966.61;;;11.22;56.51
80397;BME280;69721;55.894;-3.052;2023-09-19T02:56:33;98958.31;;;11.84;55.32
80397;BME280;69721;55.894;-3.052;2023-09-19T02:58:59;98945.42;;;11.91;54.57
80397;BME280;69721;55.894;-3.052;2023-09-19T03:01:24;98929.12;;;13.23;50.96
80397;BME280;69721;55.894;-3.052;2023-09-19T03:03:50;98940.92;;;14.10;50.00
80397;BME280;69721;55.894;-3.052;2023-09-19T03:06:15;98972.06;;;12.55;51.73
80397;BME280;69721;55.894;-3.052;2023-09-19T03:08:41;98977.91;;;11.29;56.15
80397;BME280;69721;55.894;-3.052;2023-09-19T03:11:07;98954.99;;;12.21;54.46
80397;BME280;69721;55.894;-3.052;2023-09-19T03:13:32;98952.33;;;12.46;54.04
80397;BME280;69721;55.894;-3.052;2023-09-19T03:15:58;98934.75;;;12.65;52.33
80397;BME280;69721;55.894;-3.052;2023-09-19T03:18:23;98921.47;;;11.72;53.62
80397;BME280;69721;55.894;-3.052;2023-09-19T03:20:53;98918.11;;;12.92;51.82
80397;BME280;69721;55.894;-3.052;2023-09-19T03:23:14;98911.80;;;12.10;52.58
80397;BME280;69721;55.894;-3.052;2023-09-19T03:25:40;98918.10;;;12.71;51.40
80397;BME280;69721;55.894;-3.052;2023-09-19T03:28:05;98928.61;;;13.14;51.16
80397;BME280;69721;55.894;-3.052;2023-09-19T03:30:30;98930.57;;;13.17;50.96
80397;BME280;69721;55.894;-3.052;2023-09-19T03:32:56;98918.91;;;12.57;51.77
80397;BME280;69721;55.894;-3.052;2023-09-19T03:35:21;98922.42;;;12.29;52.34
80397;BME280;69721;55.894;-3.052;2023-09-19T03:37:47;98916.00;;;12.85;52.00
80397;BME280;69721;55.894;-3.052;2023-09-19T03:40:12;98896.10;;;13.43;51.11
80397;BME280;69721;55.894;-3.052;2023-09-19T03:42:38;98895.67;;;12.80;51.30
80397;BME280;69721;55.894;-3.052;2023-09-19T03:45:04;98893.91;;;13.74;50.29
80397;BME280;69721;55.894;-3.052;2023-09-19T03:47:30;98886.87;;;13.32;50.65
80397;BME280;69721;55.894;-3.052;2023-09-19T03:49:55;98875.41;;;13.15;51.35
80397;BME280;69721;55.894;-3.052;2023-09-19T03:52:20;98856.53;;;12.16;52.77
80397;BME280;69721;55.894;-3.052;2023-09-19T03:54:46;98860.43;;;10.76;54.89
80397;BME280;69721;55.894;-3.052;2023-09-19T03:57:11;98865.55;;;10.01;57.47
80397;BME280;69721;55.894;-3.052;2023-09-19T03:59:37;98844.63;;;11.74;54.96
80397;BME280;69721;55.894;-3.052;2023-09-19T04:02:03;98831.32;;;11.85;54.06
80397;BME280;69721;55.894;-3.052;2023-09-19T04:04:28;98818.90;;;11.72;54.89
80397;BME280;69721;55.894;-3.052;2023-09-19T04:09:19;98816.31;;;11.15;56.34
80397;BME280;69721;55.894;-3.052;2023-09-19T04:11:44;98818.72;;;9.97;57.53
80397;BME280;69721;55.894;-3.052;2023-09-19T04:14:10;98821.09;;;9.30;60.12
80397;BME280;69721;55.894;-3.052;2023-09-19T04:16:36;98809.38;;;9.87;60.03
80397;BME280;69721;55.894;-3.052;2023-09-19T04:19:02;98814.68;;;10.29;59.06
80397;BME280;69721;55.894;-3.052;2023-09-19T04:21:27;98808.87;;;11.28;56.09
80397;BME280;69721;55.894;-3.052;2023-09-19T04:23:52;98810.65;;;11.29;55.62
80397;BME280;69721;55.894;-3.052;2023-09-19T04:26:18;98807.64;;;11.82;54.28
80397;BME280;69721;55.894;-3.052;2023-09-19T04:28:43;98803.98;;;12.00;54.01
80397;BME280;69721;55.894;-3.052;2023-09-19T04:31:09;98793.67;;;12.39;53.08
80397;BME280;69721;55.894;-3.052;2023-09-19T04:33:34;98779.69;;;13.55;50.55
80397;BME280;69721;55.894;-3.052;2023-09-19T04:36:00;98779.77;;;13.90;49.55
80397;BME280;69721;55.894;-3.052;2023-09-19T04:38:25;98773.74;;;13.97;48.75
80397;BME280;69721;55.894;-3.052;2023-09-19T04:40:57;98768.37;;;13.65;48.98
80397;BME280;69721;55.894;-3.052;2023-09-19T04:43:16;98766.41;;;13.64;49.25
80397;BME280;69721;55.894;-3.052;2023-09-19T04:45:41;98771.33;;;12.83;50.72
80397;BME280;69721;55.894;-3.052;2023-09-19T04:48:07;98769.78;;;11.93;52.02
80397;BME280;69721;55.894;-3.052;2023-09-19T04:50:33;98769.23;;;12.61;51.34
80397;BME280;69721;55.894;-3.052;2023-09-19T04:52:58;98767.26;;;12.57;51.57
80397;BME280;69721;55.894;-3.052;2023-09-19T04:55:23;98758.61;;;12.24;53.24
80397;BME280;69721;55.894;-3.052;2023-09-19T04:57:50;98754.67;;;12.28;52.71
80397;BME280;69721;55.894;-3.052;2023-09-19T05:00:15;98754.84;;;12.65;51.68
80397;BME280;69721;55.894;-3.052;2023-09-19T05:02:40;98751.06;;;12.58;51.85
80397;BME280;69721;55.894;-3.052;2023-09-19T05:05:06;98742.52;;;12.77;51.12
80397;BME280;69721;55.894;-3.052;2023-09-19T05:07:30;98748.44;;;11.81;53.75
80397;BME280;69721;55.894;-3.052;2023-09-19T05:09:57;98745.04;;;12.28;52.34
80397;BME280;69721;55.894;-3.052;2023-09-19T05:12:22;98752.33;;;11.51;53.99
80397;BME280;69721;55.894;-3.052;2023-09-19T05:14:47;98752.41;;;10.57;54.68
80397;BME280;69721;55.894;-3.052;2023-09-19T05:19:38;98747.70;;;9.50;59.37
80397;BME280;69721;55.894;-3.052;2023-09-19T05:22:04;98739.41;;;9.58;58.57
80397;BME280;69721;55.894;-3.052;2023-09-19T05:24:30;98737.46;;;9.65;58.42
80397;BME280;69721;55.894;-3.052;2023-09-19T05:26:55;98740.39;;;10.73;56.18
80397;BME280;69721;55.894;-3.052;2023-09-19T05:29:20;98732.16;;;9.92;56.75
80397;BME280;69721;55.894;-3.052;2023-09-19T05:31:46;98735.84;;;9.34;58.47
80397;BME280;69721;55.894;-3.052;2023-09-19T05:34:11;98741.11;;;9.54;58.69
80397;BME280;69721;55.894;-3.052;2023-09-19T05:36:37;98744.03;;;7.89;62.95
80397;BME280;69721;55.894;-3.052;2023-09-19T05:39:03;98752.53;;;8.26;62.04
80397;BME280;69721;55.894;-3.052;2023-09-19T05:41:28;98752.43;;;8.66;60.71
80397;BME280;69721;55.894;-3.052;2023-09-19T05:43:53;98750.48;;;8.89;60.64
80397;BME280;69721;55.894;-3.052;2023-09-19T05:46:19;98755.85;;;8.48;61.59
80397;BME280;69721;55.894;-3.052;2023-09-19T05:48:44;98745.87;;;9.06;60.82
80397;BME280;69721;55.894;-3.052;2023-09-19T05:51:10;98743.74;;;10.25;57.33
80397;BME280;69721;55.894;-3.052;2023-09-19T05:53:35;98735.47;;;10.76;55.44
80397;BME280;69721;55.894;-3.052;2023-09-19T05:56:01;98728.16;;;10.72;56.21
80397;BME280;69721;55.894;-3.052;2023-09-19T05:58:26;98718.58;;;10.36;56.00
80397;BME280;69721;55.894;-3.052;2023-09-19T06:00:52;98712.59;;;10.39;55.81
80397;BME280;69721;55.894;-3.052;2023-09-19T06:03:21;98722.04;;;9.64;58.13
80397;BME280;69721;55.894;-3.052;2023-09-19T06:05:46;98716.21;;;11.37;55.04
80397;BME280;69721;55.894;-3.052;2023-09-19T06:08:12;98718.91;;;11.48;54.39
80397;BME280;69721;55.894;-3.052;2023-09-19T06:10:37;98715.82;;;13.01;51.05
80397;BME280;69721;55.894;-3.052;2023-09-19T06:13:03;98721.52;;;12.58;51.68
80397;BME280;69721;55.894;-3.052;2023-09-19T06:15:28;98726.41;;;11.78;53.42
80397;BME280;69721;55.894;-3.052;2023-09-19T06:17:55;98733.55;;;11.92;53.34
80397;BME280;69721;55.894;-3.052;2023-09-19T06:20:19;98734.01;;;12.95;51.47
80397;BME280;69721;55.894;-3.052;2023-09-19T06:22:46;98730.36;;;12.83;51.07
80397;BME280;69721;55.894;-3.052;2023-09-19T06:25:12;98717.58;;;13.34;49.79
80397;BME280;69721;55.894;-3.052;2023-09-19T06:30:02;98700.20;;;13.72;48.19
80397;BME280;69721;55.894;-3.052;2023-09-19T06:32:29;98700.91;;;12.89;49.71
80397;BME280;69721;55.894;-3.052;2023-09-19T06:34:55;98694.92;;;14.35;47.65
80397;BME280;69721;55.894;-3.052;2023-09-19T06:37:21;98690.79;;;14.81;46.10
80397;BME280;69721;55.894;-3.052;2023-09-19T06:39:46;98690.48;;;13.95;47.27
80397;BME280;69721;55.894;-3.052;2023-09-19T06:42:11;98687.28;;;13.20;48.47
80397;BME280;69721;55.894;-3.052;2023-09-19T06:44:37;98685.00;;;13.80;47.46
80397;BME280;69721;55.894;-3.052;2023-09-19T06:47:03;98686.16;;;14.30;46.44
80397;BME280;69721;55.894;-3.052;2023-09-19T06:49:28;98685.44;;;14.91;46.18
80397;BME280;69721;55.894;-3.052;2023-09-19T06:51:54;98691.56;;;14.88;46.11
80397;BME280;69721;55.894;-3.052;2023-09-19T06:54:19;98692.77;;;15.24;44.61
80397;BME280;69721;55.894;-3.052;2023-09-19T06:56:44;98692.24;;;15.60;44.43
80397;BME280;69721;55.894;-3.052;2023-09-19T06:59:10;98687.52;;;15.01;44.42
80397;BME280;69721;55.894;-3.052;2023-09-19T07:01:35;98687.75;;;14.31;45.85
80397;BME280;69721;55.894;-3.052;2023-09-19T07:04:01;98691.90;;;14.73;45.09
80397;BME280;69721;55.894;-3.052;2023-09-19T07:06:26;98687.58;;;14.75;44.36
80397;BME280;69721;55.894;-3.052;2023-09-19T07:08:52;98682.94;;;14.82;45.29
80397;BME280;69721;55.894;-3.052;2023-09-19T07:11:17;98678.25;;;14.85;45.21
80397;BME280;69721;55.894;-3.052;2023-09-19T07:13:43;98668.68;;;14.77;44.26
80397;BME280;69721;55.894;-3.052;2023-09-19T07:16:08;98666.81;;;15.72;43.89
80397;BME280;69721;55.894;-3.052;2023-09-19T07:18:33;98666.55;;;15.32;44.46
80397;BME280;69721;55.894;-3.052;2023-09-19T07:20:59;98660.21;;;14.80;45.32
80397;BME280;69721;55.894;-3.052;2023-09-19T07:23:25;98662.16;;;14.63;45.50
80397;BME280;69721;55.894;-3.052;2023-09-19T07:25:50;98661.86;;;15.21;44.75
80397;BME280;69721;55.894;-3.052;2023-09-19T07:28:16;98656.64;;;14.38;45.43
80397;BME280;69721;55.894;-3.052;2023-09-19T07:30:41;98650.58;;;15.73;44.20
80397;BME280;69721;55.894;-3.052;2023-09-19T07:33:06;98643.19;;;15.32;44.79
80397;BME280;69721;55.894;-3.052;2023-09-19T07:35:33;98634.99;;;15.69;43.90
80397;BME280;69721;55.894;-3.052;2023-09-19T07:40:24;98623.03;;;12.56;50.42
80397;BME280;69721;55.894;-3.052;2023-09-19T07:42:49;98619.58;;;13.62;48.23
80397;BME280;69721;55.894;-3.052;2023-09-19T07:45:14;98632.61;;;11.65;51.77
80397;BME280;69721;55.894;-3.052;2023-09-19T07:47:40;98627.71;;;12.37;50.47
80397;BME280;69721;55.894;-3.052;2023-09-19T07:50:06;98621.39;;;11.18;53.50
80397;BME280;69721;55.894;-3.052;2023-09-19T07:52:31;98609.79;;;13.25;49.72
80397;BME280;69721;55.894;-3.052;2023-09-19T07:54:56;98624.01;;;11.16;53.85
80397;BME280;69721;55.894;-3.052;2023-09-19T07:57:22;98626.78;;;11.25;53.45
80397;BME280;69721;55.894;-3.052;2023-09-19T07:59:48;98620.74;;;11.85;52.51
80397;BME280;69721;55.894;-3.052;2023-09-19T08:02:13;98623.13;;;11.74;52.30
80397;BME280;69721;55.894;-3.052;2023-09-19T08:04:39;98616.20;;;12.19;51.97
80397;BME280;69721;55.894;-3.052;2023-09-19T08:07:04;98617.05;;;11.82;52.90
80397;BME280;69721;55.894;-3.052;2023-09-19T08:09:30;98607.17;;;11.46;54.59
80397;BME280;69721;55.894;-3.052;2023-09-19T08:11:55;98600.41;;;12.43;52.09
80397;BME280;69721;55.894;-3.052;2023-09-19T08:14:21;98599.78;;;12.48;52.01
80397;BME280;69721;55.894;-3.052;2023-09-19T08:16:46;98599.09;;;12.65;51.09
80397;BME280;69721;55.894;-3.052;2023-09-19T08:19:12;98594.83;;;12.67;51.04
80397;BME280;69721;55.894;-3.052;2023-09-19T08:21:37;98591.07;;;12.60;50.66
80397;BME280;69721;55.894;-3.052;2023-09-19T08:24:03;98587.62;;;12.89;51.17
80397;BME280;69721;55.894;-3.052;2023-09-19T08:26:28;98587.02;;;13.13;50.74
80397;BME280;69721;55.894;-3.052;2023-09-19T08:28:54;98591.28;;;13.52;50.57
80397;BME280;69721;55.894;-3.052;2023-09-19T08:31:19;98589.38;;;14.65;48.46
80397;BME280;69721;55.894;-3.052;2023-09-19T08:33:44;98589.10;;;14.68;47.50
80397;BME280;69721;55.894;-3.052;2023-09-19T08:36:10;98599.57;;;14.30;47.76
80397;BME280;69721;55.894;-3.052;2023-09-19T08:38:35;98611.05;;;13.79;49.22
80397;BME280;69721;55.894;-3.052;2023-09-19T08:41:06;98610.43;;;14.16;47.56
80397;BME280;69721;55.894;-3.052;2023-09-19T08:43:28;98609.90;;;14.51;47.84
80397;BME280;69721;55.894;-3.052;2023-09-19T08:45:57;98609.43;;;15.19;46.17
80397;BME280;69721;55.894;-3.052;2023-09-19T08:48:33;98602.09;;;14.87;47.67
80397;BME280;69721;55.894;-3.052;2023-09-19T08:50:48;98600.33;;;14.37;47.43
80397;BME280;69721;55.894;-3.052;2023-09-19T08:53:11;98602.72;;;15.71;46.57
80397;BME280;69721;55.894;-3.052;2023-09-19T08:55:34;98591.59;;;16.14;45.92
80397;BME280;69721;55.894;-3.052;2023-09-19T08:58:03;98586.42;;;16.00;46.55
80397;BME280;69721;55.894;-3.052;2023-09-19T09:00:27;98581.42;;;14.69;47.40
80397;BME280;69721;55.894;-3.052;2023-09-19T09:02:52;98576.86;;;15.21;47.92
80397;BME280;69721;55.894;-3.052;2023-09-19T09:05:18;98568.50;;;15.56;47.22
80397;BME280;69721;55.894;-3.052;2023-09-19T09:07:43;98569.77;;;14.97;46.86
80397;BME280;69721;55.894;-3.052;2023-09-19T09:10:08;98561.64;;;14.51;47.97
80397;BME280;69721;55.894;-3.052;2023-09-19T09:12:35;98560.59;;;14.72;48.59
80397;BME280;69721;55.894;-3.052;2023-09-19T09:14:59;98555.78;;;14.88;48.35
80397;BME280;69721;55.894;-3.052;2023-09-19T09:17:24;98554.00;;;14.78;48.71
80397;BME280;69721;55.894;-3.052;2023-09-19T09:19:50;98550.03;;;15.19;48.24
80397;BME280;69721;55.894;-3.052;2023-09-19T09:22:15;98552.18;;;15.33;48.11
80397;BME280;69721;55.894;-3.052;2023-09-19T09:24:51;98551.58;;;14.18;50.80
80397;BME280;69721;55.894;-3.052;2023-09-19T09:27:07;98553.32;;;15.25;48.85
80397;BME280;69721;55.894;-3.052;2023-09-19T09:29:42;98548.45;;;14.33;49.26
80397;BME280;69721;55.894;-3.052;2023-09-19T09:34:32;98549.56;;;15.72;46.68
80397;BME280;69721;55.894;-3.052;2023-09-19T09:36:48;98541.66;;;14.78;47.01
80397;BME280;69721;55.894;-3.052;2023-09-19T09:39:14;98547.28;;;13.67;50.40
80397;BME280;69721;55.894;-3.052;2023-09-19T09:41:39;98546.11;;;12.96;51.74
80397;BME280;69721;55.894;-3.052;2023-09-19T09:44:13;98544.11;;;13.53;50.77
80397;BME280;69721;55.894;-3.052;2023-09-19T09:46:30;98548.21;;;12.99;52.86
80397;BME280;69721;55.894;-3.052;2023-09-19T09:48:59;98539.36;;;13.33;50.84
80397;BME280;69721;55.894;-3.052;2023-09-19T09:51:29;98547.75;;;13.78;50.41
80397;BME280;69721;55.894;-3.052;2023-09-19T09:53:46;98541.39;;;14.62;49.10
80397;BME280;69721;55.894;-3.052;2023-09-19T09:56:12;98548.54;;;14.52;47.44
80397;BME280;69721;55.894;-3.052;2023-09-19T09:58:49;98550.69;;;14.60;49.26
80397;BME280;69721;55.894;-3.052;2023-09-19T10:01:04;98541.20;;;14.70;47.89
80397;BME280;69721;55.894;-3.052;2023-09-19T10:03:33;98543.36;;;14.52;47.94
80397;BME280;69721;55.894;-3.052;2023-09-19T10:05:54;98544.02;;;14.30;49.30
80397;BME280;69721;55.894;-3.052;2023-09-19T10:08:19;98545.88;;;15.14;47.59
80397;BME280;69721;55.894;-3.052;2023-09-19T10:10:45;98541.00;;;14.70;48.22
80397;BME280;69721;55.894;-3.052;2023-09-19T10:13:11;98544.45;;;15.46;47.23
80397;BME280;69721;55.894;-3.052;2023-09-19T10:15:36;98542.52;;;15.35;47.34
80397;BME280;69721;55.894;-3.052;2023-09-19T10:18:05;98541.01;;;14.35;48.08
80397;BME280;69721;55.894;-3.052;2023-09-19T10:20:28;98534.45;;;14.53;46.87
80397;BME280;69721;55.894;-3.052;2023-09-19T10:22:53;98536.73;;;14.70;46.99
80397;BME280;69721;55.894;-3.052;2023-09-19T10:25:18;98546.07;;;15.51;46.64
80397;BME280;69721;55.894;-3.052;2023-09-19T10:27:43;98546.64;;;14.97;46.84
80397;BME280;69721;55.894;-3.052;2023-09-19T10:30:10;98546.70;;;14.58;47.19
80397;BME280;69721;55.894;-3.052;2023-09-19T10:32:35;98538.92;;;14.78;48.66
80397;BME280;69721;55.894;-3.052;2023-09-19T10:35:00;98542.42;;;14.66;46.50
80397;BME280;69721;55.894;-3.052;2023-09-19T10:37:27;98532.72;;;13.92;47.02
80397;BME280;69721;55.894;-3.052;2023-09-19T10:39:51;98539.58;;;14.09;48.09
80397;BME280;69721;55.894;-3.052;2023-09-19T10:42:19;98538.90;;;14.35;47.58
80397;BME280;69721;55.894;-3.052;2023-09-19T10:44:43;98536.89;;;14.83;45.90
80397;BME280;69721;55.894;-3.052;2023-09-19T10:47:08;98550.61;;;14.22;47.07
80397;BME280;69721;55.894;-3.052;2023-09-19T10:49:33;98534.15;;;16.33;45.60
80397;BME280;69721;55.894;-3.052;2023-09-19T10:52:00;98533.53;;;18.07;41.89
80397;BME280;69721;55.894;-3.052;2023-09-19T10:54:27;98532.54;;;17.41;41.88
80397;BME280;69721;55.894;-3.052;2023-09-19T10:56:50;98530.29;;;17.56;42.32
80397;BME280;69721;55.894;-3.052;2023-09-19T10:59:16;98529.48;;;16.34;44.82
80397;BME280;69721;55.894;-3.052;2023-09-19T11:01:45;98528.30;;;16.93;43.82
80397;BME280;69721;55.894;-3.052;2023-09-19T11:06:31;98536.22;;;16.11;42.78
80397;BME280;69721;55.894;-3.052;2023-09-19T11:08:58;98552.77;;;14.44;46.16
80397;BME280;69721;55.894;-3.052;2023-09-19T11:16:18;98564.53;;;12.86;47.68
80397;BME280;69721;55.894;-3.052;2023-09-19T11:18:51;98563.49;;;13.11;48.62
80397;BME280;69721;55.894;-3.052;2023-09-19T11:23:29;98568.02;;;14.64;46.78
80397;BME280;69721;55.894;-3.052;2023-09-19T11:25:54;98567.52;;;14.36;47.73
80397;BME280;69721;55.894;-3.052;2023-09-19T11:28:30;98578.93;;;14.01;47.26
80397;BME280;69721;55.894;-3.052;2023-09-19T11:30:46;98578.66;;;14.11;47.38
80397;BME280;69721;55.894;-3.052;2023-09-19T11:33:16;98579.51;;;13.89;48.00
80397;BME280;69721;55.894;-3.052;2023-09-19T11:38:02;98576.99;;;14.35;46.92
80397;BME280;69721;55.894;-3.052;2023-09-19T11:40:27;98578.69;;;14.87;46.46
80397;BME280;69721;55.894;-3.052;2023-09-19T11:42:53;98581.81;;;16.24;44.12
80397;BME280;69721;55.894;-3.052;2023-09-19T11:47:45;98590.69;;;14.84;46.46
80397;BME280;69721;55.894;-3.052;2023-09-19T11:50:10;98582.16;;;15.13;46.17
80397;BME280;69721;55.894;-3.052;2023-09-19T11:52:35;98578.84;;;15.46;44.82
80397;BME280;69721;55.894;-3.052;2023-09-19T11:55:01;98582.55;;;13.27;49.26
80397;BME280;69721;55.894;-3.052;2023-09-19T11:57:26;98580.67;;;12.94;49.96
80397;BME280;69721;55.894;-3.052;2023-09-19T11:59:51;98582.93;;;13.63;50.13
80397;BME280;69721;55.894;-3.052;2023-09-19T12:04:44;98578.79;;;14.01;49.36
80397;BME280;69721;55.894;-3.052;2023-09-19T12:07:08;98580.20;;;14.61;47.52
80397;BME280;69721;55.894;-3.052;2023-09-19T12:09:33;98578.46;;;14.08;49.00
80397;BME280;69721;55.894;-3.052;2023-09-19T12:11:58;98573.85;;;16.73;45.35
80397;BME280;69721;55.894;-3.052;2023-09-19T12:14:24;98578.07;;;14.61;48.06
80397;BME280;69721;55.894;-3.052;2023-09-19T12:16:53;98585.35;;;14.04;49.36
80397;BME280;69721;55.894;-3.052;2023-09-19T12:19:18;98590.61;;;15.39;46.26
80397;BME280;69721;55.894;-3.052;2023-09-19T12:21:40;98584.16;;;14.09;48.89
80397;BME280;69721;55.894;-3.052;2023-09-19T12:24:09;98588.36;;;13.90;51.09
80397;BME280;69721;55.894;-3.052;2023-09-19T12:26:39;98572.97;;;14.19;49.16
80397;BME280;69721;55.894;-3.052;2023-09-19T12:28:56;98575.75;;;15.42;46.53
80397;BME280;69721;55.894;-3.052;2023-09-19T12:31:22;98584.06;;;16.01;46.46
80397;BME280;69721;55.894;-3.052;2023-09-19T12:33:53;98575.43;;;14.48;48.57
80397;BME280;69721;55.894;-3.052;2023-09-19T12:36:21;98571.66;;;14.13;50.50
80397;BME280;69721;55.894;-3.052;2023-09-19T12:38:38;98573.34;;;15.80;48.09
80397;BME280;69721;55.894;-3.052;2023-09-19T12:41:03;98572.95;;;15.83;47.46
80397;BME280;69721;55.894;-3.052;2023-09-19T12:43:29;98573.35;;;15.01;48.11
80397;BME280;69721;55.894;-3.052;2023-09-19T12:45:54;98574.73;;;14.37;49.19
80397;BME280;69721;55.894;-3.052;2023-09-19T12:48:22;98574.95;;;15.43;48.79
80397;BME280;69721;55.894;-3.052;2023-09-19T12:55:36;98580.10;;;15.87;48.06
80397;BME280;69721;55.894;-3.052;2023-09-19T12:58:08;98579.18;;;14.40;49.47
80397;BME280;69721;55.894;-3.052;2023-09-19T13:00:34;98578.13;;;15.43;48.83
80397;BME280;69721;55.894;-3.052;2023-09-19T13:05:17;98578.43;;;15.41;49.18
80397;BME280;69721;55.894;-3.052;2023-09-19T13:07:44;98583.78;;;15.67;47.70
80397;BME280;69721;55.894;-3.052;2023-09-19T13:10:08;98577.74;;;14.90;48.17
80397;BME280;69721;55.894;-3.052;2023-09-19T13:12:35;98576.82;;;14.08;50.44
80397;BME280;69721;55.894;-3.052;2023-09-19T13:15:07;98579.26;;;15.82;47.48
80397;BME280;69721;55.894;-3.052;2023-09-19T13:17:25;98582.82;;;15.60;48.11
80397;BME280;69721;55.894;-3.052;2023-09-19T13:19:51;98583.01;;;15.88;47.40
80397;BME280;69721;55.894;-3.052;2023-09-19T13:24:41;98586.47;;;14.51;50.11